Time,TemperatureF,DewpointF,PressureIn,WindDirection,WindDirectionDegrees,WindSpeedMPH,WindSpeedGustMPH,Humidity,HourlyPrecipIn,Conditions,Clouds,dailyrainin,SolarRadiationWatts/m^2,SoftwareType,DateUTC
2013-03-14 00:00:00,30.3,24.3,29.01,NNW,332,0.0,0.0,78,0.00,FEW,,0.00,0.0,WeatherDisplay:10.37,2013-03-14 05:00:00,
2013-03-14 00:10:00,30.1,24.7,29.00,NNW,332,0.0,0.0,80,0.00,FEW,,0.00,0.0,WeatherDisplay:10.37,2013-03-14 05:10:00,
2013-03-14 00:20:00,29.7,24.9,29.00,NNW,332,0.0,0.0,82,0.00,FEW,,0.00,0.0,WeatherDisplay:10.37,2013-03-14 05:20:00,
2013-03-14 00:30:00,29.7,24.6,29.00,NNW,332,0.0,0.0,81,0.00,FEW,,0.00,0.0,WeatherDisplay:10.37,2013-03-14 05:30:00,
2013-03-14 00:40:00,30.0,24.3,29.00,NNW,332,0.0,0.0,79,0.00,FEW,,0.00,0.0,WeatherDisplay:10.37,2013-03-14 05:40:00,
2013-03-14 00:50:00,30.2,24.5,29.00,NNW,332,0.0,0.0,79,0.00,FEW,,0.00,0.0,WeatherDisplay:10.37,2013-03-14 05:50:00,
2013-03-14 01:00:00,30.2,24.2,29.00,NNW,332,0.0,0.0,78,0.00,FEW,,0.00,0.0,WeatherDisplay:10.37,2013-03-14 06:00:00,
2013-03-14 01:10:00,29.8,24.7,28.99,NNW,332,0.0,0.0,81,0.00,FEW,,0.00,0.0,WeatherDisplay:10.37,2013-03-14 06:10:00,
2013-03-14 01:20:00,29.3,24.5,28.99,NNW,332,0.0,0.0,82,0.00,FEW,,0.00,0.0,WeatherDisplay:10.37,2013-03-14 06:20:00,
2013-03-14 01:30:00,29.0,24.2,28.98,NNW,332,0.0,0.0,82,0.00,FEW,,0.00,0.0,WeatherDisplay:10.37,2013-03-14 06:30:00,
2013-03-14 01:40:00,28.9,24.1,28.98,NNW,332,0.0,0.0,82,0.00,FEW,,0.00,0.0,WeatherDisplay:10.37,2013-03-14 06:40:00,
2013-03-14 01:50:00,28.9,24.1,28.98,NNW,332,0.0,0.0,82,0.00,FEW,,0.00,0.0,WeatherDisplay:10.37,2013-03-14 06:50:00,
2013-03-14 02:00:00,28.9,24.1,28.98,NNW,332,0.0,0.0,82,0.00,FEW,,0.00,0.0,WeatherDisplay:10.37,2013-03-14 07:00:00,
2013-03-14 02:10:00,28.8,24.0,28.98,NNW,332,0.0,0.0,82,0.00,FEW,,0.00,0.0,WeatherDisplay:10.37,2013-03-14 07:10:00,
2013-03-14 02:20:00,28.7,23.9,28.97,NNW,332,0.0,0.0,82,0.00,FEW,,0.00,0.0,WeatherDisplay:10.37,2013-03-14 07:20:00,
2013-03-14 02:30:00,28.5,23.7,28.97,NNW,332,0.0,0.0,82,0.00,FEW,,0.00,0.0,WeatherDisplay:10.37,2013-03-14 07:30:00,
2013-03-14 02:40:00,28.4,23.6,28.97,NNW,332,0.0,0.0,82,0.00,FEW,,0.00,0.0,WeatherDisplay:10.37,2013-03-14 07:40:00,
2013-03-14 02:50:00,28.7,23.9,28.98,NNW,332,0.0,0.0,82,0.00,FEW,,0.00,0.0,WeatherDisplay:10.37,2013-03-14 07:50:00,
2013-03-14 03:00:00,29.0,24.2,28.97,NNW,332,0.0,0.0,82,0.00,FEW,,0.00,0.0,WeatherDisplay:10.37,2013-03-14 08:00:00,
2013-03-14 03:10:00,29.2,24.1,28.97,NNW,332,0.0,2.0,81,0.00,FEW,,0.00,0.0,WeatherDisplay:10.37,2013-03-14 08:10:00,
2013-03-14 03:20:00,30.7,24.3,28.96,NNW,332,1.0,3.0,77,0.00,FEW,,0.00,0.0,WeatherDisplay:10.37,2013-03-14 08:20:00,
2013-03-14 03:30:00,31.6,24.2,28.96,NNW,333,0.0,3.0,74,0.00,FEW,,0.00,0.0,WeatherDisplay:10.37,2013-03-14 08:30:00,
2013-03-14 03:40:00,31.5,24.2,28.96,NNW,333,0.0,0.0,74,0.00,FEW,,0.00,0.0,WeatherDisplay:10.37,2013-03-14 08:40:00,
2013-03-14 03:50:00,31.0,24.4,28.95,NNW,333,0.0,0.0,76,0.00,FEW,,0.00,0.0,WeatherDisplay:10.37,2013-03-14 08:50:00,
2013-03-14 04:00:00,31.0,23.6,28.95,NNW,333,0.0,2.0,74,0.00,FEW,,0.00,0.0,WeatherDisplay:10.37,2013-03-14 09:00:00,
2013-03-14 04:10:00,31.9,23.9,28.95,NNW,333,0.0,2.0,72,0.00,FEW,,0.00,0.0,WeatherDisplay:10.37,2013-03-14 09:10:00,
2013-03-14 04:20:00,32.4,23.8,28.94,NNW,334,1.0,3.0,70,0.00,FEW,,0.00,0.0,WeatherDisplay:10.37,2013-03-14 09:20:00,
2013-03-14 04:30:00,32.9,23.9,28.94,NNW,335,2.0,3.0,69,0.00,FEW,,0.00,0.0,WeatherDisplay:10.37,2013-03-14 09:30:00,
2013-03-14 04:40:00,33.3,23.5,28.94,NNW,336,2.0,5.0,67,0.00,FEW,,0.00,0.0,WeatherDisplay:10.37,2013-03-14 09:40:00,
2013-03-14 04:50:00,33.8,23.7,28.94,SSE,150,2.0,5.0,66,0.00,FEW,,0.00,0.0,WeatherDisplay:10.37,2013-03-14 09:50:00,
2013-03-14 05:00:00,34.1,23.6,28.94,SSE,150,2.0,5.0,65,0.00,FEW,,0.00,0.0,WeatherDisplay:10.37,2013-03-14 10:00:00,
2013-03-14 05:10:00,34.5,23.5,28.94,SSE,147,5.0,7.0,64,0.00,FEW,,0.00,0.0,WeatherDisplay:10.37,2013-03-14 10:10:00,
2013-03-14 05:20:00,34.4,23.9,28.94,SE,144,2.0,6.0,65,0.00,FEW,,0.00,0.0,WeatherDisplay:10.37,2013-03-14 10:20:00,
2013-03-14 05:30:00,34.5,23.6,28.94,SE,144,2.0,5.0,64,0.00,FEW,,0.00,0.0,WeatherDisplay:10.37,2013-03-14 10:30:00,
2013-03-14 05:40:00,34.7,23.4,28.94,SSE,147,3.0,6.0,63,0.00,FEW,,0.00,0.0,WeatherDisplay:10.37,2013-03-14 10:40:00,
2013-03-14 05:50:00,34.7,23.4,28.94,SSE,150,2.0,7.0,63,0.00,FEW,,0.00,0.0,WeatherDisplay:10.37,2013-03-14 10:50:00,
2013-03-14 06:00:00,34.8,23.1,28.94,SSE,149,3.0,7.0,62,0.00,FEW,,0.00,0.0,WeatherDisplay:10.37,2013-03-14 11:00:00,
2013-03-14 06:10:00,35.1,23.0,28.94,SE,146,3.0,7.0,61,0.00,FEW,,0.00,0.0,WeatherDisplay:10.37,2013-03-14 11:10:00,
2013-03-14 06:20:00,35.2,23.1,28.94,SSE,148,5.0,7.0,61,0.00,FEW,,0.00,0.0,WeatherDisplay:10.37,2013-03-14 11:20:00,
2013-03-14 06:30:00,35.3,22.8,28.94,SSE,147,5.0,10.0,60,0.00,FEW,,0.00,0.0,WeatherDisplay:10.37,2013-03-14 11:30:00,
2013-03-14 06:40:00,35.3,22.8,28.94,SE,142,5.0,9.0,60,0.00,FEW,,0.00,0.0,WeatherDisplay:10.37,2013-03-14 11:40:00,
2013-03-14 06:50:00,35.3,22.8,28.93,SSE,151,5.0,10.0,60,0.00,FEW,,0.00,0.0,WeatherDisplay:10.37,2013-03-14 11:50:00,
2013-03-14 07:00:00,35.5,23.0,28.93,SSE,151,3.0,10.0,60,0.00,FEW,,0.00,0.0,WeatherDisplay:10.37,2013-03-14 12:00:00,
2013-03-14 07:10:00,35.3,22.8,28.93,SSE,147,3.0,10.0,60,0.00,FEW,,0.00,0.0,WeatherDisplay:10.37,2013-03-14 12:10:00,
2013-03-14 07:20:00,35.3,22.8,28.93,SSE,150,2.0,6.0,60,0.00,FEW,,0.00,0.0,WeatherDisplay:10.37,2013-03-14 12:20:00,
2013-03-14 07:30:00,35.3,22.8,28.93,SSE,150,2.0,6.0,60,0.00,FEW,,0.00,0.0,WeatherDisplay:10.37,2013-03-14 12:30:00,
2013-03-14 07:40:00,35.3,22.8,28.93,SSE,150,3.0,6.0,60,0.00,FEW,,0.00,0.0,WeatherDisplay:10.37,2013-03-14 12:40:00,
2013-03-14 07:50:00,35.5,23.0,28.93,SSE,150,3.0,7.0,60,0.00,FEW,,0.00,0.0,WeatherDisplay:10.37,2013-03-14 12:50:00,
2013-03-14 08:00:00,35.7,22.8,28.93,SSE,150,3.0,6.0,59,0.00,FEW,,0.00,0.0,WeatherDisplay:10.37,2013-03-14 13:00:00,
2013-03-14 08:10:00,36.0,23.0,28.93,SSE,150,3.0,7.0,59,0.00,FEW,,0.00,0.0,WeatherDisplay:10.37,2013-03-14 13:10:00,
2013-03-14 08:20:00,36.7,23.3,28.92,SSE,151,6.0,10.0,58,0.00,FEW,,0.00,0.0,WeatherDisplay:10.37,2013-03-14 13:20:00,
2013-03-14 08:30:00,37.2,23.4,28.92,SE,142,5.0,9.0,57,0.00,FEW,,0.00,0.0,WeatherDisplay:10.37,2013-03-14 13:30:00,
2013-03-14 08:40:00,37.9,23.6,28.92,SSE,155,3.0,9.0,56,0.00,FEW,,0.00,0.0,WeatherDisplay:10.37,2013-03-14 13:40:00,
2013-03-14 08:50:00,38.7,23.9,28.92,SSE,155,6.0,10.0,55,0.00,FEW,,0.00,0.0,WeatherDisplay:10.37,2013-03-14 13:50:00,
2013-03-14 09:00:00,39.6,24.3,28.92,SSE,156,3.0,10.0,54,0.00,FEW,,0.00,0.0,WeatherDisplay:10.37,2013-03-14 14:00:00,
2013-03-14 09:10:00,40.6,25.2,28.92,SSE,156,6.0,12.0,54,0.00,FEW,,0.00,0.0,WeatherDisplay:10.37,2013-03-14 14:10:00,
2013-03-14 09:20:00,41.4,24.6,28.92,SSE,160,6.0,12.0,51,0.00,FEW,,0.00,0.0,WeatherDisplay:10.37,2013-03-14 14:20:00,
2013-03-14 09:30:00,42.2,24.9,28.91,SSE,152,6.0,13.0,50,0.00,FEW,,0.00,0.0,WeatherDisplay:10.37,2013-03-14 14:30:00,
2013-03-14 09:40:00,43.2,25.8,28.91,SSE,160,6.0,13.0,50,0.00,FEW,,0.00,0.0,WeatherDisplay:10.37,2013-03-14 14:40:00,
2013-03-14 09:50:00,43.5,25.6,28.90,SSE,151,9.0,13.0,49,0.00,FEW,,0.00,0.0,WeatherDisplay:10.37,2013-03-14 14:50:00,
2013-03-14 10:00:00,44.3,26.8,28.90,SSE,160,5.0,12.0,50,0.00,FEW,,0.00,0.0,WeatherDisplay:10.37,2013-03-14 15:00:00,
2013-03-14 10:10:00,45.9,26.8,28.89,South,186,7.0,12.0,47,0.00,FEW,,0.00,0.0,WeatherDisplay:10.37,2013-03-14 15:10:00,
2013-03-14 10:20:00,47.3,27.5,28.89,South,188,5.0,13.0,46,0.00,FEW,,0.00,0.0,WeatherDisplay:10.37,2013-03-14 15:20:00,
2013-03-14 10:30:00,48.0,28.2,28.89,South,183,6.0,15.0,46,0.00,FEW,,0.00,0.0,WeatherDisplay:10.37,2013-03-14 15:30:00,
2013-03-14 10:40:00,48.7,28.8,28.88,South,181,7.0,13.0,46,0.00,FEW,,0.00,0.0,WeatherDisplay:10.37,2013-03-14 15:40:00,
2013-03-14 10:50:00,49.5,31.1,28.88,SSW,200,5.0,13.0,49,0.00,FEW,,0.00,0.0,WeatherDisplay:10.37,2013-03-14 15:50:00,
2013-03-14 11:00:00,50.6,31.1,28.87,SSW,198,7.0,13.0,47,0.00,FEW,,0.00,0.0,WeatherDisplay:10.37,2013-03-14 16:00:00,
2013-03-14 11:10:00,51.7,31.0,28.87,SSW,203,5.0,13.0,45,0.00,FEW,,0.00,0.0,WeatherDisplay:10.37,2013-03-14 16:10:00,
2013-03-14 11:20:00,53.6,32.8,28.87,SSW,207,6.0,12.0,45,0.00,FEW,,0.00,0.0,WeatherDisplay:10.37,2013-03-14 16:20:00,
2013-03-14 11:30:00,55.4,33.9,28.86,SW,214,6.0,16.0,44,0.00,FEW,,0.00,0.0,WeatherDisplay:10.37,2013-03-14 16:30:00,
2013-03-14 11:40:00,55.8,33.0,28.86,SW,221,7.0,16.0,42,0.00,FEW,,0.00,0.0,WeatherDisplay:10.37,2013-03-14 16:40:00,
2013-03-14 11:50:00,56.5,34.3,28.86,SSW,199,8.0,17.0,43,0.00,FEW,,0.00,0.0,WeatherDisplay:10.37,2013-03-14 16:50:00,
2013-03-14 12:00:00,57.1,35.4,28.85,SW,231,3.0,12.0,44,0.00,FEW,,0.00,0.0,WeatherDisplay:10.37,2013-03-14 17:00:00,
2013-03-14 12:10:00,58.2,35.8,28.85,SW,231,5.0,15.0,43,0.00,FEW,,0.00,0.0,WeatherDisplay:10.37,2013-03-14 17:10:00,
2013-03-14 12:20:00,59.5,36.9,28.84,SW,214,5.0,13.0,43,0.00,FEW,,0.00,0.0,WeatherDisplay:10.37,2013-03-14 17:20:00,
2013-03-14 12:30:00,60.6,38.0,28.84,SSW,210,3.0,10.0,43,0.00,FEW,,0.00,0.0,WeatherDisplay:10.37,2013-03-14 17:30:00,
2013-03-14 12:40:00,62.8,40.0,28.83,WSW,250,9.0,17.0,43,0.00,FEW,,0.00,0.0,WeatherDisplay:10.37,2013-03-14 17:40:00,
2013-03-14 12:50:00,64.2,40.0,28.83,SW,235,3.0,15.0,41,0.00,FEW,,0.00,0.0,WeatherDisplay:10.37,2013-03-14 17:50:00,
2013-03-14 13:00:00,64.9,40.6,28.83,SW,229,5.0,16.0,41,0.00,FEW,,0.00,0.0,WeatherDisplay:10.37,2013-03-14 18:00:00,
2013-03-14 13:10:00,65.8,40.8,28.83,WSW,254,6.0,17.0,40,0.00,FEW,,0.00,0.0,WeatherDisplay:10.37,2013-03-14 18:10:00,
2013-03-14 13:20:00,66.2,40.5,28.82,SW,235,9.0,15.0,39,0.00,FEW,,0.00,0.0,WeatherDisplay:10.37,2013-03-14 18:20:00,
2013-03-14 13:30:00,66.7,40.9,28.81,SSW,207,7.0,16.0,39,0.00,FEW,,0.00,0.0,WeatherDisplay:10.37,2013-03-14 18:30:00,
2013-03-14 13:40:00,66.7,41.0,28.81,WSW,237,6.0,21.0,39,0.00,FEW,,0.00,0.0,WeatherDisplay:10.37,2013-03-14 18:40:00,
2013-03-14 13:50:00,66.8,40.4,28.81,SW,224,8.0,20.0,38,0.00,FEW,,0.00,0.0,WeatherDisplay:10.37,2013-03-14 18:50:00,
2013-03-14 14:00:00,66.7,41.0,28.81,WSW,248,3.0,24.0,39,0.00,FEW,,0.00,0.0,WeatherDisplay:10.37,2013-03-14 19:00:00,
2013-03-14 14:10:00,67.4,40.9,28.80,SW,220,2.0,13.0,38,0.00,FEW,,0.00,0.0,WeatherDisplay:10.37,2013-03-14 19:10:00,
2013-03-14 14:20:00,67.4,40.2,28.79,SW,231,8.0,15.0,37,0.00,FEW,,0.00,0.0,WeatherDisplay:10.37,2013-03-14 19:20:00,
2013-03-14 14:30:00,68.2,41.6,28.79,SW,233,6.0,15.0,38,0.00,FEW,,0.00,0.0,WeatherDisplay:10.37,2013-03-14 19:30:00,
2013-03-14 14:40:00,68.1,41.5,28.78,SW,229,6.0,16.0,38,0.00,FEW,,0.00,0.0,WeatherDisplay:10.37,2013-03-14 19:40:00,
2013-03-14 14:50:00,68.7,42.0,28.78,SW,230,7.0,18.0,38,0.00,FEW,,0.00,0.0,WeatherDisplay:10.37,2013-03-14 19:50:00,
2013-03-14 15:00:00,69.5,42.1,28.77,West,267,10.0,18.0,37,0.00,FEW,,0.00,0.0,WeatherDisplay:10.37,2013-03-14 20:00:00,
2013-03-14 15:10:00,69.5,41.4,28.76,West,275,10.0,20.0,36,0.00,FEW,,0.00,0.0,WeatherDisplay:10.37,2013-03-14 20:10:00,
2013-03-14 15:20:00,68.8,42.1,28.76,West,272,5.0,17.0,38,0.00,FEW,,0.00,0.0,WeatherDisplay:10.37,2013-03-14 20:20:00,
2013-03-14 15:30:00,68.3,42.3,28.76,WNW,283,6.0,15.0,39,0.00,FEW,,0.00,0.0,WeatherDisplay:10.37,2013-03-14 20:30:00,
2013-03-14 15:40:00,68.3,41.0,28.75,WSW,241,7.0,15.0,37,0.00,FEW,,0.00,0.0,WeatherDisplay:10.37,2013-03-14 20:40:00,
2013-03-14 15:50:00,67.9,41.3,28.75,West,275,6.0,12.0,38,0.00,FEW,,0.00,0.0,WeatherDisplay:10.37,2013-03-14 20:50:00,
2013-03-14 16:00:00,68.8,42.2,28.75,WSW,240,8.0,20.0,38,0.00,FEW,,0.00,0.0,WeatherDisplay:10.37,2013-03-14 21:00:00,
2013-03-14 16:10:00,69.1,42.4,28.75,West,280,6.0,16.0,38,0.00,FEW,,0.00,0.0,WeatherDisplay:10.37,2013-03-14 21:10:00,
2013-03-14 16:20:00,69.6,42.2,28.75,West,275,7.0,17.0,37,0.00,FEW,,0.00,0.0,WeatherDisplay:10.37,2013-03-14 21:20:00,
2013-03-14 16:30:00,70.0,42.5,28.75,West,269,7.0,20.0,37,0.00,FEW,,0.00,0.0,WeatherDisplay:10.37,2013-03-14 21:30:00,
2013-03-14 16:40:00,70.2,42.0,28.75,West,277,9.0,16.0,36,0.00,FEW,,0.00,0.0,WeatherDisplay:10.37,2013-03-14 21:40:00,
2013-03-14 16:50:00,70.0,42.5,28.75,WNW,287,6.0,14.0,37,0.00,FEW,,0.00,0.0,WeatherDisplay:10.37,2013-03-14 21:50:00,
2013-03-14 17:00:00,70.6,43.1,28.75,West,277,6.0,13.0,37,0.00,FEW,,0.00,0.0,WeatherDisplay:10.37,2013-03-14 22:00:00,
2013-03-14 17:10:00,70.8,41.8,28.75,West,274,8.0,16.0,35,0.00,FEW,,0.00,0.0,WeatherDisplay:10.37,2013-03-14 22:10:00,
2013-03-14 17:20:00,70.5,42.2,28.75,West,277,8.0,14.0,36,0.00,FEW,,0.00,0.0,WeatherDisplay:10.37,2013-03-14 22:20:00,
2013-03-14 17:30:00,70.2,42.0,28.75,WNW,286,8.0,15.0,36,0.00,FEW,,0.00,0.0,WeatherDisplay:10.37,2013-03-14 22:30:00,
2013-03-14 17:40:00,69.9,43.1,28.75,WNW,295,3.0,16.0,38,0.00,FEW,,0.00,0.0,WeatherDisplay:10.37,2013-03-14 22:40:00,
2013-03-14 17:50:00,70.1,42.6,28.75,West,271,7.0,14.0,37,0.00,FEW,,0.00,0.0,WeatherDisplay:10.37,2013-03-14 22:50:00,
2013-03-14 18:00:00,70.0,43.2,28.75,West,265,5.0,15.0,38,0.00,FEW,,0.00,0.0,WeatherDisplay:10.37,2013-03-14 23:00:00,
2013-03-14 18:10:00,69.9,43.1,28.75,West,272,3.0,10.0,38,0.00,FEW,,0.00,0.0,WeatherDisplay:10.37,2013-03-14 23:10:00,
2013-03-14 18:20:00,69.5,42.8,28.75,West,279,5.0,13.0,38,0.00,FEW,,0.00,0.0,WeatherDisplay:10.37,2013-03-14 23:20:00,
2013-03-14 18:30:00,69.1,42.4,28.75,West,274,6.0,13.0,38,0.00,FEW,,0.00,0.0,WeatherDisplay:10.37,2013-03-14 23:30:00,
2013-03-14 18:40:00,68.6,42.7,28.75,WNW,283,1.0,13.0,39,0.00,FEW,,0.00,0.0,WeatherDisplay:10.37,2013-03-14 23:40:00,
2013-03-14 18:50:00,68.2,42.9,28.75,WNW,283,1.0,6.0,40,0.00,FEW,,0.00,0.0,WeatherDisplay:10.37,2013-03-14 23:50:00,
2013-03-14 19:00:00,67.5,43.0,28.75,West,281,1.0,7.0,41,0.00,FEW,,0.00,0.0,WeatherDisplay:10.37,2013-03-15 00:00:00,
2013-03-14 19:10:00,66.9,43.0,28.75,West,281,1.0,5.0,42,0.00,FEW,,0.00,0.0,WeatherDisplay:10.37,2013-03-15 00:10:00,
2013-03-14 19:20:00,66.1,42.9,28.75,West,280,0.0,2.0,43,0.00,FEW,,0.00,0.0,WeatherDisplay:10.37,2013-03-15 00:20:00,
2013-03-14 19:30:00,64.3,43.1,28.75,West,280,0.0,1.0,46,0.00,FEW,,0.00,0.0,WeatherDisplay:10.37,2013-03-15 00:30:00,
2013-03-14 19:40:00,62.1,42.7,28.75,West,280,0.0,1.0,49,0.00,FEW,,0.00,0.0,WeatherDisplay:10.37,2013-03-15 00:40:00,
2013-03-14 19:50:00,60.2,42.5,28.75,West,280,0.0,1.0,52,0.00,FEW,,0.00,0.0,WeatherDisplay:10.37,2013-03-15 00:50:00,
2013-03-14 20:00:00,58.6,42.0,28.74,West,280,0.0,0.0,54,0.00,FEW,,0.00,0.0,WeatherDisplay:10.37,2013-03-15 01:00:00,
2013-03-14 20:10:00,57.5,41.9,28.75,West,280,0.0,0.0,56,0.00,FEW,,0.00,0.0,WeatherDisplay:10.37,2013-03-15 01:10:00,
2013-03-14 20:20:00,56.4,41.8,28.75,West,280,0.0,0.0,58,0.00,FEW,,0.00,0.0,WeatherDisplay:10.37,2013-03-15 01:20:00,
2013-03-14 20:30:00,55.7,42.0,28.75,West,280,0.0,0.0,60,0.00,FEW,,0.00,0.0,WeatherDisplay:10.37,2013-03-15 01:30:00,
2013-03-14 20:40:00,54.8,41.6,28.75,West,280,0.0,0.0,61,0.00,FEW,,0.00,0.0,WeatherDisplay:10.37,2013-03-15 01:40:00,
2013-03-14 20:50:00,54.2,41.5,28.76,West,280,0.0,0.0,62,0.00,FEW,,0.00,0.0,WeatherDisplay:10.37,2013-03-15 01:50:00,
2013-03-14 21:00:00,53.8,41.5,28.76,West,280,0.0,0.0,63,0.00,FEW,,0.00,0.0,WeatherDisplay:10.37,2013-03-15 02:00:00,
2013-03-14 21:10:00,53.2,41.7,28.76,West,280,0.0,0.0,65,0.00,FEW,,0.00,0.0,WeatherDisplay:10.37,2013-03-15 02:10:00,
2013-03-14 21:20:00,52.9,41.0,28.76,West,280,0.0,0.0,64,0.00,FEW,,0.00,0.0,WeatherDisplay:10.37,2013-03-15 02:20:00,
2013-03-14 21:30:00,52.4,41.3,28.76,West,280,0.0,0.0,66,0.00,FEW,,0.00,0.0,WeatherDisplay:10.37,2013-03-15 02:30:00,
2013-03-14 21:40:00,51.6,41.0,28.77,West,280,0.0,0.0,67,0.00,FEW,,0.00,0.0,WeatherDisplay:10.37,2013-03-15 02:40:00,
2013-03-14 21:50:00,50.8,40.7,28.76,West,280,0.0,0.0,68,0.00,FEW,,0.00,0.0,WeatherDisplay:10.37,2013-03-15 02:50:00,
2013-03-14 22:00:00,50.1,40.7,28.76,West,280,0.0,0.0,70,0.00,FEW,,0.00,0.0,WeatherDisplay:10.37,2013-03-15 03:00:00,
2013-03-14 22:10:00,49.7,40.3,28.77,West,280,0.0,0.0,70,0.00,FEW,,0.00,0.0,WeatherDisplay:10.37,2013-03-15 03:10:00,
2013-03-14 22:20:00,49.2,40.5,28.77,West,280,0.0,0.0,72,0.00,FEW,,0.00,0.0,WeatherDisplay:10.37,2013-03-15 03:20:00,
2013-03-14 22:30:00,48.9,40.3,28.77,West,280,0.0,0.0,72,0.00,FEW,,0.00,0.0,WeatherDisplay:10.37,2013-03-15 03:30:00,
2013-03-14 22:40:00,48.5,39.9,28.77,West,280,0.0,0.0,72,0.00,FEW,,0.00,0.0,WeatherDisplay:10.37,2013-03-15 03:40:00,
2013-03-14 22:50:00,48.3,40.0,28.76,West,280,0.0,0.0,73,0.00,FEW,,0.00,0.0,WeatherDisplay:10.37,2013-03-15 03:50:00,
2013-03-14 23:00:00,47.9,39.7,28.77,West,280,0.0,0.0,73,0.00,FEW,,0.00,0.0,WeatherDisplay:10.37,2013-03-15 04:00:00,
2013-03-14 23:10:00,47.5,39.6,28.77,West,280,0.0,0.0,74,0.00,FEW,,0.00,0.0,WeatherDisplay:10.37,2013-03-15 04:10:00,
2013-03-14 23:20:00,47.1,39.9,28.77,West,280,0.0,0.0,76,0.00,FEW,,0.00,0.0,WeatherDisplay:10.37,2013-03-15 04:20:00,
2013-03-14 23:30:00,46.9,39.7,28.76,West,280,0.0,0.0,76,0.00,FEW,,0.00,0.0,WeatherDisplay:10.37,2013-03-15 04:30:00,
2013-03-14 23:40:00,46.5,39.3,28.76,West,280,0.0,0.0,76,0.00,FEW,,0.00,0.0,WeatherDisplay:10.37,2013-03-15 04:40:00,
2013-03-14 23:50:00,46.0,39.2,28.76,West,280,0.0,0.0,77,0.00,FEW,,0.00,0.0,WeatherDisplay:10.37,2013-03-15 04:50:00,